Time;durP1;ratioP1;P1;durP2;ratioP2;P2;SDS_P1;SDS_P2;PMS_P1;PMS_P2;Temp;Humidity;BMP_temperature;BMP_pressure;BME280_temperature;BME280_humidity;BME280_pressure;Samples;Min_cycle;Max_cycle;Signal;HPM_P1;HPM_P2
2021/12/24 00:00:04;;;;;;;141.73;72.20;;;;;;;;;;5093522;28;20031;-50
2021/12/24 00:02:30;;;;;;;147.85;74.70;;;;;;;;;;5093706;28;20031;-52
2021/12/24 00:04:58;;;;;;;135.00;69.28;;;;;;;;;;5093577;28;20104;-45
2021/12/24 00:07:25;;;;;;;148.50;72.45;;;;;;;;;;5093561;28;20031;-46
2021/12/24 00:09:51;;;;;;;139.63;71.22;;;;;;;;;;5093668;28;20496;-48
2021/12/24 00:12:20;;;;;;;159.85;79.88;;;;;;;;;;5093467;28;20047;-49
2021/12/24 00:14:51;;;;;;;156.10;75.00;;;;;;;;;;5086370;28;20055;-45
2021/12/24 00:17:23;;;;;;;146.15;74.30;;;;;;;;;;5073219;28;20078;-47
2021/12/24 00:20:11;;;;;;;155.27;76.70;;;;;;;;;;5073149;28;20542;-44
2021/12/24 00:36:45;;;;;;;137.63;67.20;;;;;;;;;;4955139;28;20115;-43
2021/12/24 00:39:11;;;;;;;131.80;71.05;;;;;;;;;;4957054;29;20036;-45
2021/12/24 00:41:37;;;;;;;150.18;73.63;;;;;;;;;;4956805;28;20024;-44
2021/12/24 00:44:04;;;;;;;124.03;65.85;;;;;;;;;;4956734;29;20035;-43
2021/12/24 00:46:30;;;;;;;126.63;65.22;;;;;;;;;;4957203;29;20081;-43
2021/12/24 00:49:00;;;;;;;119.93;66.32;;;;;;;;;;4956943;29;20039;-50
2021/12/24 00:51:42;;;;;;;140.68;71.00;;;;;;;;;;4956658;28;20031;-44
2021/12/24 00:56:53;;;;;;;126.93;62.85;;;;;;;;;;4956663;29;20054;-44
2021/12/24 00:59:19;;;;;;;123.30;64.22;;;;;;;;;;4940543;29;20036;-44
2021/12/24 01:01:45;;;;;;;121.07;63.95;;;;;;;;;;4981004;28;20037;-44
2021/12/24 01:04:11;;;;;;;123.45;65.70;;;;;;;;;;5015016;28;20045;-45
2021/12/24 01:06:38;;;;;;;119.85;62.85;;;;;;;;;;4997765;28;20466;-45
2021/12/24 01:09:04;;;;;;;134.57;68.45;;;;;;;;;;5014908;28;20025;-50
2021/12/24 01:11:31;;;;;;;129.75;65.40;;;;;;;;;;5056953;28;20036;-51
2021/12/24 01:14:00;;;;;;;138.88;67.05;;;;;;;;;;5076517;28;20028;-46
2021/12/24 01:16:51;;;;;;;135.20;68.93;;;;;;;;;;5097169;28;20036;-45
2021/12/24 01:19:22;;;;;;;;;;;;;;;;;;5096132;28;20448;-44
2021/12/24 01:24:49;;;;;;;132.90;68.43;;;;;;;;;;5034501;28;20489;-47
2021/12/24 01:43:01;;;;;;;128.00;65.47;;;;;;;;;;5033907;28;19958;-44
2021/12/24 01:45:30;;;;;;;117.57;62.15;;;;;;;;;;5033771;28;20029;-45
2021/12/24 01:48:00;;;;;;;110.25;58.78;;;;;;;;;;5033450;28;20044;-44
2021/12/24 01:50:27;;;;;;;108.72;56.90;;;;;;;;;;5033885;28;20018;-44
2021/12/24 01:52:55;;;;;;;98.85;51.25;;;;;;;;;;5033920;28;20593;-44
2021/12/24 01:55:21;;;;;;;96.50;51.60;;;;;;;;;;5033771;28;20124;-49
2021/12/24 01:57:48;;;;;;;94.78;51.55;;;;;;;;;;5033635;28;20037;-44
2021/12/24 02:00:16;;;;;;;86.70;48.15;;;;;;;;;;5033753;28;20030;-44
2021/12/24 02:02:42;;;;;;;84.35;46.00;;;;;;;;;;5092747;28;20062;-43
2021/12/24 02:05:09;;;;;;;87.55;47.20;;;;;;;;;;5094456;28;20086;-44
2021/12/24 02:07:36;;;;;;;78.90;42.90;;;;;;;;;;5095798;28;20020;-44
2021/12/24 02:10:02;;;;;;;79.38;43.78;;;;;;;;;;5095885;28;20024;-43
2021/12/24 02:12:31;;;;;;;78.30;42.53;;;;;;;;;;5095758;28;20059;-44
2021/12/24 02:14:59;;;;;;;73.72;39.97;;;;;;;;;;5087070;28;20040;-44
2021/12/24 02:18:00;;;;;;;77.35;41.20;;;;;;;;;;5075329;28;20074;-48
2021/12/24 02:28:42;;;;;;;58.92;31.35;;;;;;;;;;4974633;28;20130;-46
2021/12/24 02:31:10;;;;;;;55.47;29.48;;;;;;;;;;4974279;28;20027;-44
2021/12/24 02:33:36;;;;;;;48.97;26.73;;;;;;;;;;4974182;28;20045;-44
2021/12/24 02:36:03;;;;;;;42.75;23.65;;;;;;;;;;4974226;28;20121;-43
2021/12/24 02:38:29;;;;;;;44.38;25.48;;;;;;;;;;4974240;28;20030;-44
2021/12/24 02:40:56;;;;;;;43.30;23.55;;;;;;;;;;4974297;28;20047;-44
2021/12/24 02:43:24;;;;;;;33.67;21.80;;;;;;;;;;4974241;28;20054;-43
2021/12/24 02:45:54;;;;;;;41.72;23.80;;;;;;;;;;4973845;28;20042;-44
2021/12/24 02:56:23;;;;;;;39.88;22.33;;;;;;;;;;4973826;28;20045;-44
2021/12/24 02:58:50;;;;;;;40.75;22.27;;;;;;;;;;4973277;28;20535;-44
2021/12/24 03:01:19;;;;;;;39.65;23.02;;;;;;;;;;5069065;28;20484;-43
2021/12/24 03:03:48;;;;;;;36.03;20.58;;;;;;;;;;5074384;28;20023;-44
2021/12/24 03:06:21;;;;;;;41.97;22.90;;;;;;;;;;5074483;28;20045;-44
2021/12/24 03:08:48;;;;;;;39.90;23.27;;;;;;;;;;5074218;28;20039;-44
2021/12/24 03:11:14;;;;;;;38.70;21.85;;;;;;;;;;5074162;28;20029;-44
2021/12/24 03:13:41;;;;;;;41.30;23.83;;;;;;;;;;5074297;28;20021;-43
2021/12/24 03:16:08;;;;;;;41.72;23.02;;;;;;;;;;5074024;28;20037;-43
2021/12/24 03:18:36;;;;;;;36.60;21.98;;;;;;;;;;5074084;28;20384;-44
2021/12/24 03:26:31;;;;;;;40.35;24.13;;;;;;;;;;4973437;28;20086;-44
2021/12/24 03:28:57;;;;;;;42.33;25.23;;;;;;;;;;4973520;28;20080;-44
2021/12/24 03:31:23;;;;;;;47.22;26.83;;;;;;;;;;4956958;28;20379;-43
2021/12/24 03:33:53;;;;;;;46.03;26.38;;;;;;;;;;4973476;28;20041;-48
2021/12/24 03:36:20;;;;;;;41.63;23.75;;;;;;;;;;4973124;28;20034;-50
2021/12/24 03:38:48;;;;;;;46.80;26.23;;;;;;;;;;4973405;28;20030;-46
2021/12/24 03:41:15;;;;;;;48.50;24.80;;;;;;;;;;4973054;28;20047;-43
2021/12/24 03:43:41;;;;;;;41.95;24.58;;;;;;;;;;4956748;28;20073;-48
2021/12/24 03:46:11;;;;;;;41.97;24.45;;;;;;;;;;4973105;28;20117;-43
2021/12/24 03:56:31;;;;;;;45.53;22.75;;;;;;;;;;4972873;28;20049;-45
2021/12/24 03:58:57;;;;;;;43.17;23.98;;;;;;;;;;4972812;28;20023;-44
2021/12/24 04:01:24;;;;;;;41.53;25.02;;;;;;;;;;5042096;28;20040;-43
2021/12/24 04:03:50;;;;;;;40.92;24.42;;;;;;;;;;5073601;28;20017;-44
2021/12/24 04:06:16;;;;;;;46.03;25.15;;;;;;;;;;5073526;28;20107;-44
2021/12/24 04:08:42;;;;;;;42.38;24.40;;;;;;;;;;5055116;28;20078;-44
2021/12/24 04:11:08;;;;;;;40.63;24.50;;;;;;;;;;5073291;28;20094;-44
2021/12/24 04:13:34;;;;;;;44.67;24.88;;;;;;;;;;5073183;28;20027;-44
2021/12/24 04:16:01;;;;;;;48.08;27.95;;;;;;;;;;5073077;28;20044;-44
2021/12/24 04:26:26;;;;;;;49.25;26.48;;;;;;;;;;5073463;28;20116;-44
2021/12/24 04:28:52;;;;;;;43.15;25.17;;;;;;;;;;5073162;28;20032;-43
2021/12/24 04:31:24;;;;;;;51.20;26.17;;;;;;;;;;5055488;28;20021;-44
2021/12/24 04:33:50;;;;;;;45.65;26.65;;;;;;;;;;5073238;28;20021;-47
2021/12/24 04:52:50;;;;;;;45.60;26.55;;;;;;;;;;5073025;28;20059;-48
2021/12/24 05:03:30;;;;;;;40.42;24.27;;;;;;;;;;5058000;28;20044;-44
2021/12/24 05:06:25;;;;;;;48.45;26.27;;;;;;;;;;5072754;28;20043;-44
2021/12/24 05:08:57;;;;;;;50.83;24.40;;;;;;;;;;5072701;28;20024;-44
2021/12/24 05:11:24;;;;;;;50.05;26.85;;;;;;;;;;5072904;28;20035;-49
2021/12/24 05:13:50;;;;;;;43.72;24.63;;;;;;;;;;5072757;28;20016;-45
2021/12/24 05:16:40;;;;;;;43.13;23.85;;;;;;;;;;5091931;28;20052;-45
2021/12/24 05:21:52;;;;;;;39.08;22.10;;;;;;;;;;5094035;28;20046;-45
2021/12/24 05:24:19;;;;;;;34.03;20.00;;;;;;;;;;5095250;28;20028;-45
2021/12/24 05:26:50;;;;;;;34.72;20.25;;;;;;;;;;5096608;28;20024;-44
2021/12/24 05:29:16;;;;;;;35.28;20.23;;;;;;;;;;5096766;28;20081;-48
2021/12/24 05:31:42;;;;;;;34.13;19.30;;;;;;;;;;5096600;28;20097;-48
2021/12/24 05:34:09;;;;;;;35.95;20.30;;;;;;;;;;5096427;28;20078;-46
2021/12/24 05:36:35;;;;;;;38.10;21.58;;;;;;;;;;5096637;28;20384;-49
2021/12/24 05:39:02;;;;;;;40.05;21.48;;;;;;;;;;5096469;28;20032;-50
2021/12/24 05:41:28;;;;;;;37.75;22.55;;;;;;;;;;5096346;28;20022;-47
2021/12/24 05:43:54;;;;;;;39.03;22.05;;;;;;;;;;5096195;28;20106;-46
2021/12/24 05:46:20;;;;;;;38.90;22.77;;;;;;;;;;5096163;28;20165;-47
2021/12/24 05:48:47;;;;;;;35.13;20.70;;;;;;;;;;5096032;28;20103;-48
2021/12/24 05:51:13;;;;;;;32.97;19.10;;;;;;;;;;5096086;28;20024;-48
2021/12/24 05:53:39;;;;;;;36.60;19.48;;;;;;;;;;5096032;28;20105;-49
2021/12/24 05:56:06;;;;;;;38.22;19.63;;;;;;;;;;5095888;28;20039;-47
2021/12/24 05:58:32;;;;;;;35.47;19.90;;;;;;;;;;5095947;28;20107;-45
2021/12/24 06:00:58;;;;;;;33.28;18.13;;;;;;;;;;5095919;28;20094;-44
2021/12/24 06:03:24;;;;;;;30.70;17.90;;;;;;;;;;5095884;28;20020;-45
2021/12/24 06:05:50;;;;;;;36.00;20.33;;;;;;;;;;5094709;28;20024;-45
2021/12/24 06:08:16;;;;;;;30.25;17.33;;;;;;;;;;5095667;28;20085;-46
2021/12/24 06:10:43;;;;;;;32.20;18.58;;;;;;;;;;5095695;28;20032;-45
2021/12/24 06:13:11;;;;;;;42.78;19.95;;;;;;;;;;5095740;28;20020;-44
2021/12/24 06:15:48;;;;;;;34.60;19.60;;;;;;;;;;5081646;28;20078;-45
2021/12/24 06:18:26;;;;;;;34.85;19.00;;;;;;;;;;5075476;28;20104;-45
2021/12/24 06:20:54;;;;;;;37.13;20.00;;;;;;;;;;5075308;28;20456;-45
2021/12/24 06:23:21;;;;;;;33.33;19.17;;;;;;;;;;5075416;28;20025;-47
2021/12/24 06:25:48;;;;;;;39.05;20.60;;;;;;;;;;5075315;28;20021;-47
2021/12/24 06:28:14;;;;;;;38.67;20.30;;;;;;;;;;5056714;28;20029;-44
2021/12/24 06:30:41;;;;;;;33.53;18.65;;;;;;;;;;5074860;28;20412;-46
2021/12/24 06:33:08;;;;;;;33.30;17.92;;;;;;;;;;5074962;28;20028;-45
2021/12/24 06:35:34;;;;;;;38.35;21.08;;;;;;;;;;5074921;28;20032;-45
2021/12/24 06:38:01;;;;;;;39.08;20.70;;;;;;;;;;5074962;28;20384;-45
2021/12/24 06:40:29;;;;;;;33.63;18.80;;;;;;;;;;5074929;28;20039;-45
2021/12/24 06:42:55;;;;;;;35.35;19.48;;;;;;;;;;5074801;28;20028;-49
2021/12/24 06:45:24;;;;;;;32.03;19.05;;;;;;;;;;5075048;28;20033;-49
2021/12/24 06:47:54;;;;;;;36.83;19.63;;;;;;;;;;5074856;28;20025;-49
2021/12/24 06:50:21;;;;;;;35.65;20.63;;;;;;;;;;5074658;28;20028;-49
2021/12/24 06:52:47;;;;;;;32.20;18.88;;;;;;;;;;5056221;28;20393;-49
2021/12/24 06:55:13;;;;;;;38.72;21.92;;;;;;;;;;5074436;28;20100;-48
2021/12/24 06:57:40;;;;;;;39.05;21.80;;;;;;;;;;5074445;28;20476;-48
2021/12/24 07:00:07;;;;;;;32.58;20.08;;;;;;;;;;5074535;28;20425;-48
2021/12/24 07:02:34;;;;;;;35.03;19.17;;;;;;;;;;5074418;28;20090;-48
2021/12/24 07:05:00;;;;;;;38.78;21.67;;;;;;;;;;5074495;28;20472;-48
2021/12/24 07:07:26;;;;;;;31.73;18.08;;;;;;;;;;5074280;28;20032;-47
2021/12/24 07:09:52;;;;;;;34.17;21.30;;;;;;;;;;5073872;28;20540;-49
2021/12/24 07:12:18;;;;;;;30.45;19.27;;;;;;;;;;5073664;28;20480;-48
2021/12/24 07:14:46;;;;;;;33.03;19.27;;;;;;;;;;5070826;28;20048;-49
2021/12/24 07:17:12;;;;;;;29.90;19.08;;;;;;;;;;5073710;28;20060;-49
2021/12/24 07:19:38;;;;;;;31.27;17.92;;;;;;;;;;5073769;28;20016;-49
2021/12/24 07:22:04;;;;;;;32.70;17.58;;;;;;;;;;5070785;28;20074;-46
2021/12/24 07:24:31;;;;;;;36.70;21.45;;;;;;;;;;5073407;28;20129;-56
2021/12/24 07:26:57;;;;;;;30.73;17.17;;;;;;;;;;5073330;28;20029;-55
2021/12/24 07:29:23;;;;;;;31.88;17.73;;;;;;;;;;5073344;28;20020;-48
2021/12/24 07:31:49;;;;;;;89.63;44.72;;;;;;;;;;5055019;28;20028;-48
2021/12/24 07:34:15;;;;;;;74.50;38.50;;;;;;;;;;5073301;28;20507;-47
2021/12/24 07:36:41;;;;;;;38.47;21.80;;;;;;;;;;5073099;28;20036;-54
2021/12/24 07:39:07;;;;;;;37.33;22.00;;;;;;;;;;5073390;28;20021;-54
2021/12/24 07:41:33;;;;;;;38.47;22.52;;;;;;;;;;5073166;28;20024;-56
2021/12/24 07:44:01;;;;;;;47.25;27.48;;;;;;;;;;5073115;28;20035;-54
2021/12/24 07:46:35;;;;;;;44.65;24.08;;;;;;;;;;5072650;28;20029;-51
2021/12/24 07:49:12;;;;;;;45.88;24.95;;;;;;;;;;5073120;28;20012;-55
2021/12/24 07:52:03;;;;;;;40.45;22.48;;;;;;;;;;5073088;28;20027;-53
2021/12/24 07:54:30;;;;;;;71.22;36.35;;;;;;;;;;5070951;28;20009;-53
2021/12/24 07:56:56;;;;;;;51.78;27.20;;;;;;;;;;5072821;28;20081;-52
2021/12/24 07:59:22;;;;;;;32.10;19.05;;;;;;;;;;5072966;28;20025;-52
2021/12/24 08:01:48;;;;;;;25.20;15.73;;;;;;;;;;5073230;28;20032;-57
2021/12/24 08:04:17;;;;;;;32.33;17.85;;;;;;;;;;5073871;28;20025;-55
2021/12/24 08:06:43;;;;;;;30.42;18.00;;;;;;;;;;5073523;28;20025;-55
2021/12/24 08:09:10;;;;;;;29.45;16.40;;;;;;;;;;5073445;28;20028;-54
2021/12/24 08:11:36;;;;;;;29.23;17.05;;;;;;;;;;5073087;28;20024;-53
2021/12/24 08:14:03;;;;;;;22.75;14.00;;;;;;;;;;5072623;28;20025;-52
2021/12/24 08:16:30;;;;;;;36.15;20.20;;;;;;;;;;5072756;28;20029;-53
2021/12/24 08:18:57;;;;;;;26.98;15.25;;;;;;;;;;5072761;28;20486;-54
2021/12/24 08:21:23;;;;;;;31.00;19.30;;;;;;;;;;5072780;28;20067;-53
2021/12/24 08:23:49;;;;;;;24.05;16.38;;;;;;;;;;5054385;28;20120;-54
2021/12/24 08:26:16;;;;;;;23.10;14.57;;;;;;;;;;5072558;28;20024;-49
2021/12/24 08:28:42;;;;;;;22.20;15.50;;;;;;;;;;5072779;28;20017;-52
2021/12/24 08:31:08;;;;;;;23.25;13.25;;;;;;;;;;5072824;28;20077;-51
2021/12/24 08:33:35;;;;;;;23.10;13.68;;;;;;;;;;5054504;28;20041;-52
2021/12/24 08:36:04;;;;;;;23.33;15.57;;;;;;;;;;5072960;28;20025;-52
2021/12/24 08:38:30;;;;;;;22.80;15.15;;;;;;;;;;5072525;28;20020;-51
2021/12/24 08:40:56;;;;;;;23.65;14.20;;;;;;;;;;5072509;28;20025;-51
2021/12/24 08:43:22;;;;;;;29.73;16.33;;;;;;;;;;5072641;28;20027;-52
2021/12/24 08:45:48;;;;;;;26.48;16.35;;;;;;;;;;5072352;28;20029;-50
2021/12/24 08:48:14;;;;;;;23.48;14.88;;;;;;;;;;5072474;28;20085;-49
2021/12/24 08:50:41;;;;;;;26.45;15.50;;;;;;;;;;5072396;28;20354;-50
2021/12/24 08:53:07;;;;;;;22.40;12.32;;;;;;;;;;5072335;28;20133;-51
2021/12/24 08:55:34;;;;;;;17.92;12.00;;;;;;;;;;5072376;28;20012;-51
2021/12/24 08:58:00;;;;;;;18.73;12.40;;;;;;;;;;5072080;28;20021;-52
2021/12/24 09:00:26;;;;;;;19.63;12.93;;;;;;;;;;5076272;28;20106;-52
2021/12/24 09:02:52;;;;;;;19.05;13.32;;;;;;;;;;5075234;28;20027;-50
2021/12/24 09:05:18;;;;;;;16.80;11.82;;;;;;;;;;5076097;28;20499;-51
2021/12/24 09:07:44;;;;;;;17.63;11.18;;;;;;;;;;5057751;28;20438;-51
2021/12/24 09:10:12;;;;;;;16.90;10.80;;;;;;;;;;5076081;28;20021;-50
2021/12/24 09:12:39;;;;;;;16.70;10.98;;;;;;;;;;5075128;28;20027;-51
2021/12/24 09:15:06;;;;;;;16.73;10.43;;;;;;;;;;5075557;28;20041;-51
2021/12/24 09:17:32;;;;;;;15.65;9.18;;;;;;;;;;5075874;28;20107;-52
2021/12/24 09:19:58;;;;;;;12.77;9.50;;;;;;;;;;5075848;28;20052;-50
2021/12/24 09:22:31;;;;;;;16.10;9.45;;;;;;;;;;5075940;28;20074;-51
2021/12/24 09:24:57;;;;;;;11.00;7.80;;;;;;;;;;5075740;28;20069;-51
2021/12/24 09:27:24;;;;;;;11.43;7.00;;;;;;;;;;5075720;28;20027;-52
2021/12/24 09:29:50;;;;;;;14.35;9.27;;;;;;;;;;5075725;28;20023;-50
2021/12/24 09:32:16;;;;;;;11.85;7.85;;;;;;;;;;5075572;28;20055;-51
2021/12/24 09:34:43;;;;;;;12.40;8.05;;;;;;;;;;5075719;28;20380;-53
2021/12/24 09:37:09;;;;;;;10.15;7.45;;;;;;;;;;5075496;28;20035;-52
2021/12/24 09:39:35;;;;;;;11.60;6.50;;;;;;;;;;5075448;28;20136;-52
2021/12/24 09:42:02;;;;;;;13.82;6.57;;;;;;;;;;5072743;28;20503;-52
2021/12/24 09:44:28;;;;;;;10.43;6.90;;;;;;;;;;5075086;28;20488;-52
2021/12/24 09:46:54;;;;;;;8.75;5.85;;;;;;;;;;5075505;28;20036;-52
2021/12/24 09:49:21;;;;;;;11.48;7.30;;;;;;;;;;5076017;28;20099;-52
2021/12/24 09:51:50;;;;;;;13.73;8.00;;;;;;;;;;5075857;28;20136;-52
2021/12/24 09:54:18;;;;;;;12.45;8.15;;;;;;;;;;5075845;28;20043;-52
2021/12/24 09:56:44;;;;;;;18.25;9.48;;;;;;;;;;5075567;28;20040;-51
2021/12/24 09:59:11;;;;;;;15.15;9.30;;;;;;;;;;5075945;28;20054;-52
2021/12/24 10:01:40;;;;;;;17.38;8.70;;;;;;;;;;5075645;28;20031;-52
2021/12/24 10:04:07;;;;;;;14.15;9.93;;;;;;;;;;5075781;28;20078;-53
2021/12/24 10:06:34;;;;;;;10.73;6.75;;;;;;;;;;5075979;28;20082;-52
2021/12/24 10:09:07;;;;;;;13.35;8.07;;;;;;;;;;5075190;28;20017;-52
2021/12/24 10:11:46;;;;;;;16.00;9.45;;;;;;;;;;5075412;28;20056;-52
2021/12/24 10:14:12;;;;;;;11.25;6.85;;;;;;;;;;5075269;28;20031;-50
2021/12/24 10:16:41;;;;;;;18.88;8.80;;;;;;;;;;5075422;28;20028;-50
2021/12/24 10:19:09;;;;;;;16.67;6.82;;;;;;;;;;5075301;28;20051;-51
2021/12/24 10:21:35;;;;;;;16.60;7.22;;;;;;;;;;5056899;28;20032;-51
2021/12/24 10:24:10;;;;;;;11.48;7.25;;;;;;;;;;5075027;28;20020;-54
2021/12/24 10:26:38;;;;;;;16.52;6.80;;;;;;;;;;5075279;28;20484;-51
2021/12/24 10:29:04;;;;;;;11.70;6.57;;;;;;;;;;5075048;28;20036;-50
2021/12/24 10:31:36;;;;;;;12.20;6.40;;;;;;;;;;5075139;28;20441;-51
2021/12/24 10:34:21;;;;;;;9.30;6.45;;;;;;;;;;5075429;28;20031;-51
2021/12/24 10:36:54;;;;;;;9.25;6.32;;;;;;;;;;5074791;28;20041;-51
2021/12/24 10:39:21;;;;;;;6.95;5.10;;;;;;;;;;5074904;28;20066;-51
2021/12/24 10:41:48;;;;;;;10.40;4.55;;;;;;;;;;5074821;28;20020;-51
2021/12/24 10:44:15;;;;;;;6.85;4.80;;;;;;;;;;5074972;28;20395;-50
2021/12/24 10:46:56;;;;;;;14.93;4.03;;;;;;;;;;5074741;28;20096;-50
2021/12/24 10:49:34;;;;;;;;;;;;;;;;;;5075351;28;20047;-48
2021/12/24 10:55:06;;;;;;;7.47;4.70;;;;;;;;;;5012750;28;20034;-51
2021/12/24 10:57:33;;;;;;;11.02;6.03;;;;;;;;;;5012659;28;20037;-52
2021/12/24 11:00:05;;;;;;;7.82;4.85;;;;;;;;;;5012751;28;20526;-51
2021/12/24 11:02:38;;;;;;;15.88;6.95;;;;;;;;;;5012751;28;20477;-52
2021/12/24 11:05:04;;;;;;;14.70;6.15;;;;;;;;;;5012887;28;20034;-52
2021/12/24 11:07:40;;;;;;;10.38;4.18;;;;;;;;;;5012776;28;20037;-51
2021/12/24 11:10:13;;;;;;;13.88;4.85;;;;;;;;;;5012735;28;20038;-51
2021/12/24 11:12:46;;;;;;;30.00;4.72;;;;;;;;;;5012683;28;20034;-52
2021/12/24 11:15:29;;;;;;;11.30;4.35;;;;;;;;;;5012235;28;20054;-51
2021/12/24 11:17:59;;;;;;;12.90;3.60;;;;;;;;;;5012729;28;20042;-51
2021/12/24 11:20:26;;;;;;;12.40;4.20;;;;;;;;;;5011902;28;20542;-51
2021/12/24 11:22:54;;;;;;;13.32;3.70;;;;;;;;;;5012291;28;20030;-51
2021/12/24 11:25:21;;;;;;;6.10;3.08;;;;;;;;;;5012194;28;20363;-51
2021/12/24 11:27:48;;;;;;;9.27;4.10;;;;;;;;;;5012126;28;20109;-52
2021/12/24 11:30:15;;;;;;;8.82;3.30;;;;;;;;;;5012873;28;20038;-52
2021/12/24 11:32:41;;;;;;;5.85;3.60;;;;;;;;;;5073986;28;20017;-51
2021/12/24 11:35:07;;;;;;;8.88;3.30;;;;;;;;;;5073912;28;20472;-51
2021/12/24 11:37:34;;;;;;;7.97;3.33;;;;;;;;;;5073650;28;20041;-51
2021/12/24 11:40:02;;;;;;;8.63;3.80;;;;;;;;;;5073854;28;20016;-51
2021/12/24 11:42:31;;;;;;;8.95;3.95;;;;;;;;;;5073857;28;20081;-51
2021/12/24 11:44:57;;;;;;;6.43;3.58;;;;;;;;;;5073700;28;20044;-53
2021/12/24 11:47:23;;;;;;;9.63;4.53;;;;;;;;;;5055551;28;20029;-51
2021/12/24 11:49:49;;;;;;;13.10;6.10;;;;;;;;;;5073590;28;20055;-51
2021/12/24 11:52:16;;;;;;;9.90;4.93;;;;;;;;;;5073575;28;20052;-50
2021/12/24 11:54:42;;;;;;;10.13;4.13;;;;;;;;;;5073753;28;20464;-51
2021/12/24 11:57:24;;;;;;;13.60;6.13;;;;;;;;;;5073450;28;20044;-50
2021/12/24 11:59:51;;;;;;;11.82;4.72;;;;;;;;;;5073548;28;20423;-51
2021/12/24 12:02:37;;;;;;;16.15;6.55;;;;;;;;;;5073466;28;20025;-51
2021/12/24 12:05:11;;;;;;;30.10;12.40;;;;;;;;;;5073376;28;20024;-51
2021/12/24 12:07:39;;;;;;;27.42;10.07;;;;;;;;;;5073504;28;20013;-51
2021/12/24 12:10:07;;;;;;;28.77;11.68;;;;;;;;;;5073282;28;20021;-52
2021/12/24 12:12:36;;;;;;;25.15;9.82;;;;;;;;;;5073579;28;20096;-51
2021/12/24 12:15:21;;;;;;;23.73;10.52;;;;;;;;;;5073360;28;20052;-51
2021/12/24 12:17:51;;;;;;;13.32;6.63;;;;;;;;;;5073277;28;20059;-51
2021/12/24 12:20:47;;;;;;;22.35;8.85;;;;;;;;;;5073395;28;20044;-51
2021/12/24 12:23:32;;;;;;;28.88;7.20;;;;;;;;;;5073454;28;20480;-50
2021/12/24 12:25:59;;;;;;;13.07;6.50;;;;;;;;;;5073280;28;20027;-50
2021/12/24 12:28:26;;;;;;;11.25;5.32;;;;;;;;;;5073330;28;20025;-50
2021/12/24 12:30:55;;;;;;;9.35;5.00;;;;;;;;;;5074144;28;20418;-50
2021/12/24 12:33:37;;;;;;;9.68;5.35;;;;;;;;;;5077300;28;20026;-49
2021/12/24 12:36:06;;;;;;;14.60;6.20;;;;;;;;;;5077259;28;20027;-51
2021/12/24 12:38:38;;;;;;;13.20;6.57;;;;;;;;;;5077283;28;20040;-51
2021/12/24 12:41:33;;;;;;;14.95;6.32;;;;;;;;;;5077291;28;20020;-50
2021/12/24 12:44:01;;;;;;;14.05;5.78;;;;;;;;;;5077226;28;20031;-50
2021/12/24 12:46:31;;;;;;;10.00;5.30;;;;;;;;;;5077210;28;20074;-52
2021/12/24 12:48:59;;;;;;;8.90;4.93;;;;;;;;;;5077087;28;20028;-49
2021/12/24 12:52:01;;;;;;;7.55;4.50;;;;;;;;;;5077051;28;20488;-52
2021/12/24 12:54:48;;;;;;;16.58;6.35;;;;;;;;;;4976184;28;20031;-51
2021/12/24 12:57:21;;;;;;;15.95;7.63;;;;;;;;;;4976109;28;20518;-51
2021/12/24 13:00:06;;;;;;;10.40;5.50;;;;;;;;;;4976026;28;20030;-51
2021/12/24 13:05:33;;;;;;;14.75;7.60;;;;;;;;;;4937320;29;20044;-51
2021/12/24 13:08:14;;;;;;;14.88;6.97;;;;;;;;;;4937021;29;20040;-50
2021/12/24 13:10:40;;;;;;;19.55;8.25;;;;;;;;;;4937380;29;20027;-51
2021/12/24 13:13:07;;;;;;;30.95;12.00;;;;;;;;;;4937183;29;20070;-52
2021/12/24 13:15:46;;;;;;;29.90;16.08;;;;;;;;;;4936857;29;20059;-51
2021/12/24 13:18:26;;;;;;;37.15;16.00;;;;;;;;;;4937115;29;20032;-52
2021/12/24 13:23:31;;;;;;;29.05;15.10;;;;;;;;;;4937264;29;20447;-52
2021/12/24 13:25:57;;;;;;;20.58;12.98;;;;;;;;;;4937037;29;20038;-53
2021/12/24 13:28:24;;;;;;;13.63;9.32;;;;;;;;;;4965247;28;20031;-52
2021/12/24 13:30:50;;;;;;;15.10;7.78;;;;;;;;;;4994859;28;20491;-51
2021/12/24 13:33:18;;;;;;;12.45;5.18;;;;;;;;;;4994587;28;20034;-50
2021/12/24 13:35:46;;;;;;;6.70;4.28;;;;;;;;;;4994740;28;20126;-52
2021/12/24 13:38:25;;;;;;;10.50;4.57;;;;;;;;;;4994643;28;20038;-50
2021/12/24 13:40:51;;;;;;;22.63;7.60;;;;;;;;;;5019403;28;20037;-48
2021/12/24 13:43:20;;;;;;;24.65;9.95;;;;;;;;;;5055271;28;20358;-50
2021/12/24 13:45:48;;;;;;;27.05;12.38;;;;;;;;;;5055710;28;20106;-53
2021/12/24 13:48:21;;;;;;;27.88;14.98;;;;;;;;;;5055886;28;20036;-53
2021/12/24 13:56:37;;;;;;;54.00;21.33;;;;;;;;;;5046236;28;20791;-51
2021/12/24 13:59:03;;;;;;;38.63;18.02;;;;;;;;;;5045228;28;20043;-52
2021/12/24 14:01:30;;;;;;;37.45;17.67;;;;;;;;;;5027580;28;20902;-52
2021/12/24 14:03:57;;;;;;;26.90;12.52;;;;;;;;;;5045809;28;20029;-52
2021/12/24 14:06:37;;;;;;;31.17;12.90;;;;;;;;;;5044902;28;20681;-49
2021/12/24 14:09:10;;;;;;;138.45;73.43;;;;;;;;;;5027683;28;20033;-51
2021/12/24 14:11:38;;;;;;;55.60;26.27;;;;;;;;;;5044742;28;20025;-52
2021/12/24 14:14:12;;;;;;;28.80;13.25;;;;;;;;;;5044723;28;20395;-52
2021/12/24 14:17:00;;;;;;;30.27;12.30;;;;;;;;;;5044715;28;20078;-50
2021/12/24 14:19:33;;;;;;;13.23;6.38;;;;;;;;;;5044598;28;20199;-51
2021/12/24 14:22:11;;;;;;;13.27;5.70;;;;;;;;;;5071566;28;20032;-48
2021/12/24 14:24:37;;;;;;;11.02;5.85;;;;;;;;;;5075074;28;20498;-48
2021/12/24 14:27:08;;;;;;;11.07;4.90;;;;;;;;;;5056617;28;20457;-48
2021/12/24 14:29:36;;;;;;;13.52;6.10;;;;;;;;;;5074978;28;20024;-48
2021/12/24 14:32:05;;;;;;;17.52;7.53;;;;;;;;;;5074891;28;20120;-50
2021/12/24 14:34:37;;;;;;;18.50;9.43;;;;;;;;;;5075069;28;20491;-47
2021/12/24 14:37:08;;;;;;;13.13;5.53;;;;;;;;;;5074690;28;20499;-49
2021/12/24 14:39:43;;;;;;;16.50;6.47;;;;;;;;;;5075010;28;20028;-50
2021/12/24 14:42:10;;;;;;;12.43;5.70;;;;;;;;;;5074775;28;20121;-50
2021/12/24 14:44:36;;;;;;;14.57;6.57;;;;;;;;;;5074525;28;20067;-49
2021/12/24 14:47:02;;;;;;;23.70;11.05;;;;;;;;;;5074784;28;20064;-51
2021/12/24 14:49:32;;;;;;;21.58;9.30;;;;;;;;;;5074842;28;20107;-51
2021/12/24 14:52:17;;;;;;;26.25;12.82;;;;;;;;;;5074830;28;20024;-51
2021/12/24 14:55:02;;;;;;;22.63;12.80;;;;;;;;;;5073564;28;20495;-48
2021/12/24 14:57:28;;;;;;;32.30;16.40;;;;;;;;;;5074378;28;20072;-48
2021/12/24 14:59:54;;;;;;;21.65;10.90;;;;;;;;;;5074584;28;20051;-51
2021/12/24 15:02:20;;;;;;;23.30;11.98;;;;;;;;;;5074546;28;20563;-49
2021/12/24 15:04:55;;;;;;;30.05;16.77;;;;;;;;;;5074402;28;20070;-52
2021/12/24 15:07:29;;;;;;;19.80;10.45;;;;;;;;;;5073787;28;20044;-48
2021/12/24 15:10:17;;;;;;;19.00;9.88;;;;;;;;;;5073728;28;20021;-49
2021/12/24 15:12:49;;;;;;;18.45;8.20;;;;;;;;;;5073209;28;20020;-50
2021/12/24 15:15:16;;;;;;;17.35;8.35;;;;;;;;;;5073597;28;20076;-52
2021/12/24 15:17:43;;;;;;;16.15;8.82;;;;;;;;;;5073582;28;20103;-51
2021/12/24 15:20:09;;;;;;;16.25;8.20;;;;;;;;;;5073179;28;20493;-48
2021/12/24 15:22:36;;;;;;;16.35;8.30;;;;;;;;;;5073527;28;20021;-49
2021/12/24 15:25:02;;;;;;;14.43;7.63;;;;;;;;;;5072928;28;20379;-50
2021/12/24 15:27:33;;;;;;;13.35;7.78;;;;;;;;;;5073649;28;20031;-48
2021/12/24 15:30:00;;;;;;;14.35;6.88;;;;;;;;;;5073366;28;20040;-52
2021/12/24 15:32:26;;;;;;;13.07;7.88;;;;;;;;;;5073507;28;20055;-49
2021/12/24 15:34:52;;;;;;;19.60;9.45;;;;;;;;;;5073308;28;20023;-48
2021/12/24 15:37:20;;;;;;;16.25;7.90;;;;;;;;;;5073100;28;20051;-52
2021/12/24 15:39:47;;;;;;;17.15;7.25;;;;;;;;;;5073296;28;20025;-51
2021/12/24 15:42:13;;;;;;;19.77;7.72;;;;;;;;;;5072993;28;20464;-50
2021/12/24 15:44:45;;;;;;;20.88;9.48;;;;;;;;;;5073185;28;20365;-50
2021/12/24 15:47:11;;;;;;;19.80;9.77;;;;;;;;;;5073142;28;20032;-52
2021/12/24 15:49:37;;;;;;;18.17;9.40;;;;;;;;;;5073036;28;20044;-51
2021/12/24 15:52:04;;;;;;;19.42;9.63;;;;;;;;;;5073353;28;20024;-52
2021/12/24 15:54:30;;;;;;;18.60;9.30;;;;;;;;;;5073268;28;20024;-50
2021/12/24 15:56:57;;;;;;;20.85;11.82;;;;;;;;;;5073028;28;20113;-52
2021/12/24 15:59:25;;;;;;;25.25;14.80;;;;;;;;;;5073027;28;20032;-48
2021/12/24 16:01:51;;;;;;;26.00;16.25;;;;;;;;;;5073162;28;20148;-49
2021/12/24 16:04:17;;;;;;;31.35;18.17;;;;;;;;;;5072926;28;20029;-50
2021/12/24 16:06:43;;;;;;;33.67;17.58;;;;;;;;;;5072514;28;20023;-49
2021/12/24 16:09:10;;;;;;;30.73;18.27;;;;;;;;;;5072897;28;20028;-47
2021/12/24 16:11:36;;;;;;;36.40;20.00;;;;;;;;;;5072819;28;20027;-51
2021/12/24 16:14:02;;;;;;;40.60;21.38;;;;;;;;;;5069557;28;20036;-50
2021/12/24 16:16:29;;;;;;;37.90;20.50;;;;;;;;;;5072555;28;20136;-47
2021/12/24 16:18:56;;;;;;;43.72;25.48;;;;;;;;;;5072625;28;20021;-48
2021/12/24 16:21:22;;;;;;;46.72;27.63;;;;;;;;;;5072566;28;20547;-49
2021/12/24 16:23:50;;;;;;;28.25;18.25;;;;;;;;;;5072702;28;20056;-47
2021/12/24 16:26:16;;;;;;;17.45;9.63;;;;;;;;;;5072573;28;20015;-48